Time;durP1;ratioP1;P1;durP2;ratioP2;P2;SDS_P1;SDS_P2;PMS_P1;PMS_P2;Temp;Humidity;BMP_temperature;BMP_pressure;BME280_temperature;BME280_humidity;BME280_pressure;Samples;Min_cycle;Max_cycle;Signal;HPM_P1;HPM_P2
2022/11/08 00:03:31;;;;;;;10.43;3.15;;;13.30;99.90;;;;;;5072493;28;20044;-65
2022/11/08 00:14:09;;;;;;;11.73;2.42;;;13.30;99.90;;;;;;5071497;28;20490;-66
2022/11/08 00:16:35;;;;;;;11.52;2.65;;;13.40;99.90;;;;;;5072398;28;20044;-66
2022/11/08 00:19:01;;;;;;;11.48;2.63;;;13.30;99.90;;;;;;5072200;28;20452;-65
2022/11/08 00:21:27;;;;;;;11.80;2.92;;;13.30;99.90;;;;;;5072176;28;20060;-65
2022/11/08 00:23:53;;;;;;;11.88;3.55;;;13.30;99.90;;;;;;5073923;28;20041;-66
2022/11/08 00:26:19;;;;;;;8.68;2.13;;;13.30;99.90;;;;;;5076045;28;20044;-65
2022/11/08 00:28:44;;;;;;;7.30;1.85;;;13.30;99.90;;;;;;5074831;28;20051;-66
2022/11/08 00:31:10;;;;;;;10.82;2.78;;;13.30;99.90;;;;;;5074568;28;20525;-65
2022/11/08 00:33:36;;;;;;;13.05;2.40;;;13.30;99.90;;;;;;5075878;28;20029;-66
2022/11/08 00:36:03;;;;;;;8.25;1.85;;;13.30;99.90;;;;;;5074469;28;20398;-66
2022/11/08 00:38:28;;;;;;;8.43;2.33;;;13.30;99.90;;;;;;5057671;28;20036;-65
2022/11/08 00:40:54;;;;;;;9.68;2.60;;;13.30;99.90;;;;;;5074417;28;20043;-66
2022/11/08 00:43:20;;;;;;;7.68;2.03;;;13.30;99.90;;;;;;5072212;28;20048;-65
2022/11/08 00:45:46;;;;;;;9.65;2.60;;;13.20;99.90;;;;;;5074457;28;20072;-66
2022/11/08 00:48:12;;;;;;;8.07;2.13;;;13.20;99.90;;;;;;5075596;28;20486;-65
2022/11/08 00:50:38;;;;;;;12.73;2.30;;;13.20;99.90;;;;;;5075537;28;20037;-65
2022/11/08 00:53:04;;;;;;;11.55;2.40;;;13.10;99.90;;;;;;5075377;28;20044;-66
2022/11/08 00:55:30;;;;;;;12.07;2.58;;;13.10;99.90;;;;;;5073776;28;20110;-66
2022/11/08 00:57:56;;;;;;;11.88;2.47;;;13.10;99.90;;;;;;5074057;28;20118;-65
2022/11/08 01:00:22;;;;;;;8.25;2.10;;;13.00;99.90;;;;;;5075470;28;20044;-66
2022/11/08 01:03:17;;;;;;;9.63;2.47;;;13.00;99.90;;;;;;5075301;28;20478;-65
2022/11/08 01:05:36;;;;;;;10.63;2.40;;;12.90;99.90;;;;;;5073976;28;20425;-65
2022/11/08 01:08:02;;;;;;;8.63;2.35;;;12.90;99.90;;;;;;5074047;28;20116;-66
2022/11/08 01:10:28;;;;;;;12.55;2.85;;;12.80;99.90;;;;;;5075119;28;20079;-65
2022/11/08 01:12:53;;;;;;;8.70;2.25;;;12.90;99.90;;;;;;5071634;28;20082;-66
2022/11/08 01:15:19;;;;;;;9.02;2.90;;;12.80;99.90;;;;;;5075146;28;20067;-65
2022/11/08 01:17:45;;;;;;;5.45;2.08;;;12.90;99.90;;;;;;5057269;28;20114;-66
2022/11/08 01:20:11;;;;;;;8.88;3.17;;;12.90;99.90;;;;;;5073467;28;20048;-65
2022/11/08 01:22:36;;;;;;;13.73;2.38;;;12.80;99.90;;;;;;5057253;28;20041;-66
2022/11/08 01:25:02;;;;;;;13.55;2.70;;;12.80;99.90;;;;;;5073643;28;20132;-66
2022/11/08 01:27:28;;;;;;;9.70;2.22;;;12.80;99.90;;;;;;5074684;28;20076;-65
2022/11/08 01:29:54;;;;;;;6.45;2.15;;;12.80;99.90;;;;;;5074854;28;20082;-66
2022/11/08 01:32:20;;;;;;;5.88;2.13;;;12.80;99.90;;;;;;5074687;28;20111;-65
2022/11/08 01:34:45;;;;;;;9.88;2.67;;;12.80;99.90;;;;;;5073213;28;20482;-65
2022/11/08 01:37:11;;;;;;;6.30;2.20;;;12.70;99.90;;;;;;5074735;28;20033;-65
2022/11/08 01:39:37;;;;;;;8.85;2.60;;;12.70;99.90;;;;;;5074693;28;20048;-65
2022/11/08 01:42:02;;;;;;;9.52;2.03;;;12.70;99.90;;;;;;5054646;28;20099;-65
2022/11/08 01:44:28;;;;;;;10.48;2.30;;;12.70;99.90;;;;;;5074488;28;20032;-65
2022/11/08 01:46:54;;;;;;;8.68;2.47;;;12.60;99.90;;;;;;5073317;28;20047;-66
2022/11/08 01:49:43;;;;;;;7.20;2.40;;;12.60;99.90;;;;;;5073331;28;20412;-66
2022/11/08 01:52:17;;;;;;;8.25;2.13;;;12.60;99.90;;;;;;5074446;28;20044;-65
2022/11/08 01:55:00;;;;;;;7.85;2.60;;;12.50;99.90;;;;;;5072767;28;20044;-66
2022/11/08 01:57:32;;;;;;;8.52;2.33;;;12.50;99.90;;;;;;5072969;28;20048;-65
2022/11/08 02:00:04;;;;;;;10.63;2.78;;;12.50;99.90;;;;;;5074462;28;20055;-65
2022/11/08 02:02:32;;;;;;;9.25;2.53;;;12.50;99.90;;;;;;5073062;28;20041;-65
2022/11/08 02:04:59;;;;;;;8.82;2.13;;;12.40;99.90;;;;;;5073080;28;20041;-66
2022/11/08 02:07:26;;;;;;;10.05;2.17;;;12.40;99.90;;;;;;5072635;28;20052;-65
2022/11/08 02:09:54;;;;;;;8.50;2.10;;;12.30;99.90;;;;;;5072666;28;20099;-66
2022/11/08 02:12:21;;;;;;;8.50;2.20;;;12.30;99.90;;;;;;5071633;28;20043;-66
2022/11/08 02:14:47;;;;;;;11.23;2.50;;;12.20;99.90;;;;;;5072770;28;20040;-65
2022/11/08 02:17:13;;;;;;;5.55;2.35;;;12.10;99.90;;;;;;5074018;28;20417;-66
2022/11/08 02:19:44;;;;;;;5.28;1.67;;;12.10;99.90;;;;;;5072673;28;20089;-66
2022/11/08 02:22:27;;;;;;;11.02;2.58;;;12.00;99.90;;;;;;5055764;28;20483;-66
2022/11/08 02:24:54;;;;;;;6.22;2.17;;;12.00;99.90;;;;;;5072700;28;20055;-65
2022/11/08 02:27:20;;;;;;;8.77;2.10;;;12.00;99.90;;;;;;5072211;28;20451;-65
2022/11/08 02:29:46;;;;;;;8.15;2.60;;;11.90;99.90;;;;;;5073755;28;20076;-65
2022/11/08 02:32:11;;;;;;;8.52;3.08;;;11.90;99.90;;;;;;5073468;28;20041;-66
2022/11/08 02:34:45;;;;;;;9.57;2.70;;;11.90;99.90;;;;;;5073582;28;20070;-65
2022/11/08 02:37:15;;;;;;;3.40;1.50;;;11.90;99.90;;;;;;5073339;28;20044;-65
2022/11/08 02:39:41;;;;;;;8.82;2.40;;;11.90;99.90;;;;;;5072532;28;20431;-65
2022/11/08 02:42:13;;;;;;;7.88;2.67;;;11.80;99.90;;;;;;5071300;28;20045;-65
2022/11/08 02:44:39;;;;;;;10.40;3.55;;;11.80;99.90;;;;;;5072197;28;20082;-65
2022/11/08 02:47:04;;;;;;;7.78;2.47;;;11.80;99.90;;;;;;5072911;28;20479;-65
2022/11/08 02:49:30;;;;;;;5.05;2.13;;;11.70;99.90;;;;;;5073262;28;20600;-65
2022/11/08 02:51:56;;;;;;;10.05;2.78;;;11.80;99.90;;;;;;5071799;28;20050;-65
2022/11/08 02:54:22;;;;;;;9.50;2.50;;;11.70;99.90;;;;;;5073373;28;20040;-65
2022/11/08 02:56:47;;;;;;;10.15;2.53;;;11.70;99.90;;;;;;5071589;28;20091;-65
2022/11/08 02:59:13;;;;;;;8.57;2.40;;;11.60;99.90;;;;;;5072056;28;20044;-65
2022/11/08 03:01:39;;;;;;;9.90;4.20;;;11.60;99.90;;;;;;5073108;28;20037;-65
2022/11/08 03:04:05;;;;;;;8.35;2.40;;;11.50;99.90;;;;;;5072992;28;20048;-65
2022/11/08 03:06:31;;;;;;;9.15;2.72;;;11.50;99.90;;;;;;5072833;28;20036;-65
2022/11/08 03:08:56;;;;;;;9.45;3.17;;;11.50;99.90;;;;;;5071497;28;20357;-64
2022/11/08 03:11:22;;;;;;;10.25;2.85;;;11.40;99.90;;;;;;5073171;28;20036;-65
2022/11/08 03:13:48;;;;;;;7.82;2.50;;;11.40;99.90;;;;;;5069325;28;20382;-65
2022/11/08 03:16:13;;;;;;;10.95;2.65;;;11.40;99.90;;;;;;5072834;28;20036;-65
2022/11/08 03:18:39;;;;;;;11.38;2.78;;;11.30;99.90;;;;;;5054939;28;20040;-65
2022/11/08 03:21:05;;;;;;;10.13;2.38;;;11.30;99.90;;;;;;5072650;28;20437;-65
2022/11/08 03:23:32;;;;;;;11.07;3.28;;;11.30;99.90;;;;;;5071555;28;20101;-65
2022/11/08 03:26:01;;;;;;;9.45;2.67;;;11.30;99.90;;;;;;5071445;28;20118;-65
2022/11/08 03:28:27;;;;;;;8.52;2.03;;;11.20;99.90;;;;;;5071746;28;20450;-65
2022/11/08 03:30:53;;;;;;;9.80;3.10;;;11.20;99.90;;;;;;5072685;28;20068;-66
2022/11/08 03:33:19;;;;;;;8.70;2.65;;;11.20;99.90;;;;;;5071233;28;20072;-65
2022/11/08 03:35:47;;;;;;;9.85;2.50;;;11.20;99.90;;;;;;5071394;28;20040;-65
2022/11/08 03:38:13;;;;;;;6.85;2.65;;;11.20;99.90;;;;;;5072868;28;20115;-65
2022/11/08 03:40:39;;;;;;;7.75;2.58;;;11.20;99.90;;;;;;5072852;28;20032;-67
2022/11/08 03:43:05;;;;;;;14.75;3.20;;;11.20;99.90;;;;;;5069106;28;20044;-66
2022/11/08 03:45:31;;;;;;;8.23;2.60;;;11.20;99.90;;;;;;5071490;28;20123;-66
2022/11/08 03:47:56;;;;;;;9.02;2.10;;;11.10;99.90;;;;;;5072483;28;20532;-65
2022/11/08 03:50:22;;;;;;;10.70;4.15;;;11.10;99.90;;;;;;5071211;28;20057;-65
2022/11/08 03:52:50;;;;;;;7.40;2.47;;;11.10;99.90;;;;;;5071234;28;20080;-65
2022/11/08 03:55:18;;;;;;;8.95;2.70;;;11.10;99.90;;;;;;5077857;28;20063;-66
2022/11/08 03:57:46;;;;;;;6.32;2.33;;;11.10;99.90;;;;;;5092405;28;20040;-65
2022/11/08 04:00:14;;;;;;;9.40;2.70;;;11.10;99.90;;;;;;5078517;28;20044;-65
2022/11/08 04:02:40;;;;;;;9.35;2.75;;;11.10;99.90;;;;;;5096556;28;20040;-65
2022/11/08 04:05:08;;;;;;;8.07;3.00;;;11.00;99.90;;;;;;5078388;28;20047;-65
2022/11/08 04:07:34;;;;;;;6.63;2.47;;;11.00;99.90;;;;;;5096668;28;20040;-66
2022/11/08 04:10:00;;;;;;;9.13;2.72;;;11.00;99.90;;;;;;5096502;28;20028;-65
2022/11/08 04:15:15;;;;;;;6.25;2.67;;;11.00;99.90;;;;;;5096232;28;20044;-66
2022/11/08 04:23:12;;;;;;;11.15;3.30;;;11.00;99.90;;;;;;5096221;28;20490;-66
2022/11/08 04:25:38;;;;;;;7.35;3.00;;;11.00;99.90;;;;;;5096189;28;20462;-65
2022/11/08 04:28:04;;;;;;;8.52;3.10;;;11.00;99.90;;;;;;5077851;28;20131;-65
2022/11/08 04:30:30;;;;;;;4.78;2.53;;;10.90;99.90;;;;;;5096259;28;20101;-65
2022/11/08 04:33:00;;;;;;;6.03;2.55;;;10.90;99.90;;;;;;5096226;28;20477;-65
2022/11/08 04:35:26;;;;;;;9.90;3.35;;;10.90;99.90;;;;;;5096192;28;20424;-64
2022/11/08 04:37:55;;;;;;;6.13;2.63;;;10.90;99.90;;;;;;5077807;28;20044;-64
2022/11/08 04:40:21;;;;;;;6.67;2.97;;;10.90;99.90;;;;;;5061073;28;20504;-65
2022/11/08 04:42:47;;;;;;;8.27;3.25;;;10.90;99.90;;;;;;5093882;28;20040;-65
2022/11/08 04:45:13;;;;;;;9.35;2.72;;;10.90;99.90;;;;;;5095471;28;20087;-65
2022/11/08 04:47:38;;;;;;;3.38;2.47;;;10.80;99.90;;;;;;5095809;28;20036;-65
2022/11/08 04:50:04;;;;;;;8.13;2.60;;;10.90;99.90;;;;;;5077536;28;20493;-66
2022/11/08 04:52:30;;;;;;;5.90;2.38;;;10.90;99.90;;;;;;5095727;28;20032;-65
2022/11/08 04:54:55;;;;;;;7.18;3.00;;;10.90;99.90;;;;;;5077401;28;20075;-66
2022/11/08 04:57:21;;;;;;;12.55;3.17;;;10.90;99.90;;;;;;5077353;28;20699;-64
2022/11/08 04:59:47;;;;;;;7.90;3.03;;;10.90;99.90;;;;;;5095613;28;20036;-66
2022/11/08 05:02:13;;;;;;;7.68;2.67;;;10.90;99.90;;;;;;5095249;28;20047;-65
2022/11/08 05:04:38;;;;;;;11.77;3.25;;;10.90;99.90;;;;;;5077479;28;20044;-65
2022/11/08 05:07:04;;;;;;;11.27;2.55;;;11.00;99.90;;;;;;5077211;28;20527;-65
2022/11/08 05:09:30;;;;;;;6.40;2.40;;;10.90;99.90;;;;;;5060167;28;20113;-66
2022/11/08 05:11:55;;;;;;;7.20;2.67;;;11.00;99.90;;;;;;5093254;28;20097;-65
2022/11/08 05:14:21;;;;;;;7.28;2.60;;;11.00;99.90;;;;;;5095348;28;20478;-65
2022/11/08 05:16:47;;;;;;;9.88;2.65;;;11.00;99.90;;;;;;5095352;28;20068;-65
2022/11/08 05:19:12;;;;;;;7.70;2.53;;;11.00;99.90;;;;;;5077024;28;20150;-65
2022/11/08 05:24:22;;;;;;;5.25;2.83;;;11.00;99.90;;;;;;5076881;28;20108;-65
2022/11/08 05:26:49;;;;;;;8.90;2.65;;;11.10;99.90;;;;;;5094873;28;20555;-65
2022/11/08 05:29:15;;;;;;;10.88;2.58;;;11.10;99.90;;;;;;5076839;28;20044;-65
2022/11/08 05:31:41;;;;;;;9.23;3.22;;;11.10;99.90;;;;;;5076702;28;20036;-66
2022/11/08 05:34:06;;;;;;;7.68;2.95;;;11.00;99.90;;;;;;5076600;28;20035;-65
2022/11/08 05:36:32;;;;;;;9.27;2.80;;;11.00;99.90;;;;;;5093685;28;20071;-66
2022/11/08 05:38:58;;;;;;;8.05;3.58;;;11.00;99.90;;;;;;5076585;28;20485;-65
2022/11/08 05:41:25;;;;;;;6.07;2.95;;;11.00;99.90;;;;;;5076920;28;20135;-65
2022/11/08 05:43:53;;;;;;;6.90;2.88;;;11.00;99.90;;;;;;5074324;28;20470;-65
2022/11/08 05:46:20;;;;;;;8.52;2.80;;;11.00;99.90;;;;;;5094632;28;20040;-65
2022/11/08 05:48:46;;;;;;;11.40;4.63;;;11.00;99.90;;;;;;5094643;28;20075;-65
2022/11/08 05:51:14;;;;;;;7.22;2.97;;;11.00;99.90;;;;;;5094520;28;20389;-66
2022/11/08 05:53:40;;;;;;;8.18;2.83;;;11.00;99.90;;;;;;5094637;28;20035;-65
2022/11/08 05:56:06;;;;;;;5.97;3.17;;;10.90;99.90;;;;;;5094170;28;20409;-66
2022/11/08 05:58:34;;;;;;;6.88;2.50;;;10.90;99.90;;;;;;5094388;28;20044;-66
2022/11/08 06:01:06;;;;;;;9.10;2.97;;;11.00;99.90;;;;;;5076341;28;20046;-66
2022/11/08 06:03:32;;;;;;;7.55;2.70;;;11.00;99.90;;;;;;5076244;28;20106;-65
2022/11/08 06:06:02;;;;;;;8.93;2.58;;;11.00;99.90;;;;;;5075875;28;20046;-65
2022/11/08 06:08:28;;;;;;;;;;;11.00;99.90;;;;;;5094880;28;20039;-66
2022/11/08 06:10:54;;;;;;;8.05;2.40;;;11.00;99.90;;;;;;5094243;28;20374;-65
2022/11/08 06:13:19;;;;;;;7.78;2.13;;;10.90;99.90;;;;;;5091982;28;20545;-66
2022/11/08 06:15:45;;;;;;;6.28;2.60;;;11.00;99.90;;;;;;5075989;28;20119;-65
2022/11/08 06:18:11;;;;;;;5.80;2.25;;;11.00;99.90;;;;;;5076188;28;20131;-67
2022/11/08 06:20:36;;;;;;;10.25;2.97;;;11.00;99.90;;;;;;5093286;28;20062;-66
2022/11/08 06:23:02;;;;;;;5.03;2.50;;;11.00;99.90;;;;;;5075834;28;20076;-66
2022/11/08 06:25:28;;;;;;;5.47;2.08;;;11.00;99.90;;;;;;5075958;28;20553;-65
2022/11/08 06:27:53;;;;;;;7.65;2.42;;;11.00;99.90;;;;;;5075378;28;20494;-65
2022/11/08 06:30:19;;;;;;;7.18;2.30;;;11.10;99.90;;;;;;5075884;28;20040;-65
2022/11/08 06:32:45;;;;;;;6.80;2.25;;;11.10;99.90;;;;;;5093779;28;20036;-66
2022/11/08 06:35:10;;;;;;;5.10;2.50;;;11.10;99.90;;;;;;5093218;28;20409;-65
2022/11/08 06:37:36;;;;;;;8.23;2.53;;;11.10;99.90;;;;;;5075781;28;20101;-65
2022/11/08 06:40:02;;;;;;;5.03;2.00;;;11.20;99.90;;;;;;5075474;28;20402;-65
2022/11/08 06:42:27;;;;;;;5.38;2.22;;;11.20;99.90;;;;;;5073249;28;20140;-65
2022/11/08 06:44:53;;;;;;;5.93;2.28;;;11.20;99.90;;;;;;5075395;28;20044;-65
2022/11/08 06:47:19;;;;;;;4.22;1.67;;;11.10;99.90;;;;;;5075322;28;20032;-66
2022/11/08 06:49:45;;;;;;;5.82;2.13;;;11.20;99.90;;;;;;5093321;28;20474;-65
2022/11/08 06:52:10;;;;;;;8.45;2.13;;;11.10;99.90;;;;;;5075243;28;20351;-65
2022/11/08 06:54:36;;;;;;;6.07;2.65;;;11.10;99.90;;;;;;5093496;28;20040;-66
2022/11/08 06:57:02;;;;;;;9.13;2.22;;;11.10;99.90;;;;;;5093210;28;20438;-66
2022/11/08 06:59:28;;;;;;;5.97;2.47;;;11.10;99.90;;;;;;5093162;28;20039;-66
2022/11/08 07:01:54;;;;;;;8.30;2.17;;;11.10;99.90;;;;;;5058643;28;20067;-66
2022/11/08 07:04:20;;;;;;;7.28;1.83;;;11.10;99.90;;;;;;5075024;28;20351;-65
2022/11/08 07:06:46;;;;;;;7.95;2.47;;;11.10;99.90;;;;;;5093303;28;20054;-66
2022/11/08 07:09:12;;;;;;;6.13;2.00;;;11.10;99.90;;;;;;5075040;28;20505;-65
2022/11/08 07:11:38;;;;;;;4.97;2.10;;;11.10;99.90;;;;;;5093075;28;20028;-65
2022/11/08 07:14:04;;;;;;;6.30;2.28;;;11.10;99.90;;;;;;5090978;28;20660;-66
2022/11/08 07:16:30;;;;;;;5.68;1.80;;;11.10;99.90;;;;;;5092886;28;20456;-65
2022/11/08 07:18:56;;;;;;;4.07;1.98;;;11.10;99.90;;;;;;5092867;28;20494;-65
2022/11/08 07:21:22;;;;;;;3.05;1.38;;;11.10;99.90;;;;;;5075048;28;20047;-66
2022/11/08 07:23:48;;;;;;;9.98;3.05;;;11.10;99.90;;;;;;5074577;28;20043;-65
2022/11/08 07:26:14;;;;;;;4.10;1.88;;;11.20;99.90;;;;;;5074712;28;20493;-67
2022/11/08 07:28:40;;;;;;;5.93;2.00;;;11.20;99.90;;;;;;5074693;28;20040;-66
2022/11/08 07:31:07;;;;;;;5.57;2.00;;;11.20;99.90;;;;;;5092764;28;20043;-65
2022/11/08 07:33:33;;;;;;;6.82;2.00;;;11.30;99.90;;;;;;5092777;28;20088;-66
2022/11/08 07:35:59;;;;;;;5.57;1.98;;;11.30;99.90;;;;;;5073720;28;20127;-66
2022/11/08 07:38:25;;;;;;;4.55;2.20;;;11.30;99.90;;;;;;5060878;28;20036;-66
2022/11/08 07:40:55;;;;;;;7.10;2.30;;;11.30;99.90;;;;;;5092572;28;20038;-65
2022/11/08 07:43:21;;;;;;;7.50;2.20;;;11.30;99.90;;;;;;5072386;28;20044;-66
2022/11/08 07:45:54;;;;;;;5.40;1.92;;;11.30;99.90;;;;;;5091371;28;20067;-67
2022/11/08 07:48:20;;;;;;;4.07;1.75;;;11.30;99.90;;;;;;5091109;28;20082;-66
2022/11/08 07:50:46;;;;;;;5.95;2.03;;;11.40;99.90;;;;;;5092710;28;20044;-66
2022/11/08 07:53:11;;;;;;;7.72;2.08;;;11.40;99.90;;;;;;5074722;28;20043;-66
2022/11/08 07:55:39;;;;;;;4.38;1.90;;;11.50;99.90;;;;;;5092477;28;20452;-66
2022/11/08 07:58:06;;;;;;;6.07;2.17;;;11.50;99.90;;;;;;5092511;28;20048;-67
2022/11/08 08:00:37;;;;;;;3.88;1.80;;;11.50;99.90;;;;;;5074322;28;20494;-66
2022/11/08 08:03:04;;;;;;;6.50;2.67;;;11.50;99.90;;;;;;5092557;28;20048;-65
2022/11/08 08:05:34;;;;;;;5.95;2.20;;;11.60;99.90;;;;;;5092298;28;20062;-64
2022/11/08 08:08:00;;;;;;;2.90;1.40;;;11.60;99.90;;;;;;5074280;28;20462;-66
2022/11/08 08:10:28;;;;;;;4.28;1.33;;;11.70;99.90;;;;;;5074537;28;20274;-65
2022/11/08 08:12:57;;;;;;;4.72;2.53;;;11.80;99.90;;;;;;5072247;28;20474;-65
2022/11/08 08:15:24;;;;;;;5.40;2.22;;;12.00;99.90;;;;;;5074730;28;20405;-65
2022/11/08 08:17:50;;;;;;;6.35;2.42;;;12.00;99.90;;;;;;5074416;28;20071;-66
2022/11/08 08:20:16;;;;;;;7.38;2.10;;;12.10;99.90;;;;;;5092491;28;20051;-65
2022/11/08 08:22:51;;;;;;;5.45;1.65;;;12.20;99.90;;;;;;5074701;28;20425;-66
2022/11/08 08:25:18;;;;;;;5.38;1.95;;;12.40;99.90;;;;;;5092163;28;20481;-66
2022/11/08 08:27:54;;;;;;;5.20;2.00;;;12.40;99.90;;;;;;5074074;28;20127;-66
2022/11/08 08:30:21;;;;;;;6.65;2.40;;;12.40;99.90;;;;;;5092588;28;20394;-65
2022/11/08 08:32:47;;;;;;;3.92;2.10;;;12.40;99.90;;;;;;5074120;28;20044;-66
2022/11/08 08:35:13;;;;;;;4.45;1.77;;;12.40;99.90;;;;;;5092303;28;20036;-67
2022/11/08 08:37:40;;;;;;;5.82;1.92;;;12.60;99.90;;;;;;5092191;28;20044;-65
2022/11/08 08:40:06;;;;;;;5.93;2.55;;;12.70;99.90;;;;;;5074061;28;20048;-67
2022/11/08 08:42:33;;;;;;;4.95;1.98;;;12.80;99.90;;;;;;5072086;28;20388;-65
2022/11/08 08:44:59;;;;;;;4.38;2.03;;;12.90;99.90;;;;;;5076113;28;20123;-66
2022/11/08 08:47:25;;;;;;;5.60;2.05;;;13.00;99.90;;;;;;5061228;28;20056;-65
2022/11/08 08:49:50;;;;;;;6.28;2.03;;;13.20;99.90;;;;;;5061461;28;20064;-65
2022/11/08 08:52:16;;;;;;;7.18;2.28;;;13.30;99.90;;;;;;5097111;28;20058;-67
2022/11/08 08:54:42;;;;;;;5.65;1.90;;;13.30;99.90;;;;;;5096435;28;20328;-67
2022/11/08 08:57:08;;;;;;;5.43;2.00;;;13.20;99.90;;;;;;5095594;28;20081;-66
2022/11/08 08:59:35;;;;;;;3.80;1.50;;;13.10;99.90;;;;;;5095781;28;20447;-66
2022/11/08 09:02:00;;;;;;;6.13;1.83;;;12.90;99.90;;;;;;5077481;28;20389;-66
2022/11/08 09:04:27;;;;;;;4.50;1.92;;;12.80;99.90;;;;;;5095614;28;20040;-66
2022/11/08 09:06:53;;;;;;;3.65;2.03;;;12.80;99.90;;;;;;5095334;28;20040;-66
2022/11/08 09:09:19;;;;;;;5.30;1.98;;;12.80;99.90;;;;;;5077296;28;20051;-68
2022/11/08 09:11:45;;;;;;;4.45;1.73;;;12.80;99.90;;;;;;5077396;28;20437;-67
2022/11/08 09:14:11;;;;;;;4.50;1.65;;;12.80;99.90;;;;;;5074962;28;20086;-69
2022/11/08 09:16:36;;;;;;;4.82;1.80;;;12.80;99.90;;;;;;5077502;28;20051;-67
2022/11/08 09:19:02;;;;;;;6.32;2.00;;;12.80;99.90;;;;;;5095371;28;20040;-67
2022/11/08 09:21:28;;;;;;;4.20;1.70;;;12.80;99.90;;;;;;5095145;28;20047;-67
2022/11/08 09:23:54;;;;;;;4.93;2.00;;;12.80;99.90;;;;;;5058318;28;20043;-68
2022/11/08 09:26:20;;;;;;;2.50;1.67;;;12.80;99.90;;;;;;5101982;28;20042;-68
2022/11/08 09:28:45;;;;;;;4.93;1.63;;;12.90;99.90;;;;;;5097181;28;20472;-68
2022/11/08 09:31:12;;;;;;;4.35;1.67;;;12.90;99.90;;;;;;5079797;28;20465;-68
2022/11/08 09:33:39;;;;;;;5.28;1.73;;;12.90;99.90;;;;;;5096674;28;20423;-68
2022/11/08 09:36:08;;;;;;;3.75;1.92;;;12.90;99.90;;;;;;5114719;28;20046;-67
2022/11/08 09:38:34;;;;;;;4.63;1.90;;;13.00;99.90;;;;;;5096248;28;20078;-71
2022/11/08 09:41:14;;;;;;;4.50;1.90;;;13.10;99.90;;;;;;5096387;28;20484;-68
2022/11/08 09:44:17;;;;;;;4.78;1.65;;;13.10;99.90;;;;;;5094485;28;20381;-70
2022/11/08 09:46:47;;;;;;;3.42;1.75;;;13.10;99.90;;;;;;5095377;28;20465;-70
2022/11/08 09:49:23;;;;;;;4.28;1.70;;;13.00;99.90;;;;;;5095848;28;20036;-71
2022/11/08 09:51:50;;;;;;;3.03;1.50;;;13.00;99.90;;;;;;5096099;28;20449;-68
2022/11/08 09:54:28;;;;;;;5.10;1.95;;;13.00;99.90;;;;;;5105200;28;20516;-70
2022/11/08 09:56:54;;;;;;;3.35;1.80;;;13.00;99.90;;;;;;5113066;28;20059;-71
2022/11/08 09:59:36;;;;;;;3.92;1.40;;;13.10;99.90;;;;;;5114069;28;20046;-71
2022/11/08 10:02:09;;;;;;;4.05;1.77;;;13.20;99.90;;;;;;5114038;28;20054;-70
2022/11/08 10:04:36;;;;;;;4.65;1.90;;;13.20;99.90;;;;;;5096033;28;20071;-71
2022/11/08 10:07:40;;;;;;;6.88;1.60;;;13.20;99.90;;;;;;5113954;28;20047;-72
2022/11/08 10:10:27;;;;;;;3.97;1.50;;;13.20;99.90;;;;;;5088744;28;20797;-70
2022/11/08 10:13:11;;;;;;;4.15;1.73;;;13.20;99.90;;;;;;5076817;28;20042;-71
2022/11/08 10:15:52;;;;;;;5.50;1.65;;;13.10;99.90;;;;;;5078902;28;20047;-71
2022/11/08 10:18:42;;;;;;;6.95;2.13;;;13.20;99.90;;;;;;5113699;28;20039;-71
2022/11/08 10:21:45;;;;;;;10.57;2.63;;;13.10;99.90;;;;;;5095550;28;20194;-70
2022/11/08 10:24:35;;;;;;;4.05;1.85;;;13.10;99.90;;;;;;5095307;28;20148;-71
2022/11/08 10:27:03;;;;;;;5.00;1.77;;;13.10;99.90;;;;;;5113427;28;20085;-73
2022/11/08 10:29:42;;;;;;;3.95;2.03;;;13.00;99.90;;;;;;5095728;28;20043;-71
2022/11/08 10:32:20;;;;;;;4.97;1.92;;;13.00;99.90;;;;;;5113502;28;20039;-72
2022/11/08 10:34:57;;;;;;;6.93;2.08;;;13.00;99.90;;;;;;5106189;28;20040;-72
2022/11/08 10:37:25;;;;;;;6.30;2.05;;;13.10;99.90;;;;;;5086301;28;20489;-71
2022/11/08 10:39:56;;;;;;;4.07;1.73;;;13.10;99.90;;;;;;5095154;28;20047;-72
2022/11/08 10:42:46;;;;;;;3.67;1.58;;;13.20;99.90;;;;;;5111166;28;20150;-71
2022/11/08 10:45:12;;;;;;;3.58;1.67;;;13.30;99.90;;;;;;5095097;28;20588;-71
2022/11/08 10:47:48;;;;;;;4.63;1.95;;;13.40;99.90;;;;;;5113288;28;20481;-70
2022/11/08 10:50:17;;;;;;;3.65;1.65;;;13.50;99.90;;;;;;5095008;28;20035;-70
2022/11/08 10:52:57;;;;;;;3.45;1.52;;;13.50;99.90;;;;;;5113336;28;20053;-71
2022/11/08 10:55:29;;;;;;;3.38;1.35;;;13.50;99.90;;;;;;5094855;28;20100;-70
2022/11/08 10:57:55;;;;;;;3.67;1.45;;;13.60;99.90;;;;;;5090963;28;20101;-71
2022/11/08 11:00:22;;;;;;;2.72;1.42;;;13.60;99.90;;;;;;5086270;28;20126;-70
2022/11/08 11:02:54;;;;;;;3.28;1.40;;;13.60;99.90;;;;;;5105301;28;20097;-70
2022/11/08 11:05:27;;;;;;;4.97;1.40;;;13.60;99.90;;;;;;5095075;28;20040;-70
2022/11/08 11:07:59;;;;;;;3.05;1.30;;;13.60;99.90;;;;;;5094320;28;20118;-70
2022/11/08 11:10:39;;;;;;;3.47;2.03;;;13.60;99.90;;;;;;5077889;28;20480;-69
2022/11/08 11:13:18;;;;;;;3.00;1.50;;;13.70;99.90;;;;;;5075637;28;20168;-72
2022/11/08 11:16:02;;;;;;;3.17;1.70;;;13.70;99.90;;;;;;5094586;28;20032;-70
2022/11/08 11:18:49;;;;;;;2.60;1.20;;;13.90;99.90;;;;;;5094847;28;20059;-73
2022/11/08 11:21:21;;;;;;;3.05;1.27;;;13.90;99.90;;;;;;5094288;28;20051;-71
2022/11/08 11:23:54;;;;;;;4.93;1.90;;;13.80;99.90;;;;;;5112881;28;20077;-70
2022/11/08 11:26:28;;;;;;;5.45;1.45;;;13.80;99.90;;;;;;5094502;28;20122;-70
2022/11/08 11:29:28;;;;;;;3.38;1.52;;;13.80;99.90;;;;;;5094753;28;20046;-69
2022/11/08 11:31:54;;;;;;;4.38;1.50;;;13.80;99.90;;;;;;5088920;28;20058;-70
2022/11/08 11:34:47;;;;;;;3.42;1.52;;;13.80;99.90;;;;;;5112758;28;20122;-74
2022/11/08 11:37:47;;;;;;;4.38;1.35;;;13.80;99.90;;;;;;5076965;28;20051;-72
2022/11/08 11:40:39;;;;;;;4.85;1.80;;;13.70;99.90;;;;;;5112386;28;20043;-71
2022/11/08 11:43:07;;;;;;;4.13;1.30;;;13.80;99.90;;;;;;5092046;28;20104;-72
2022/11/08 11:45:49;;;;;;;5.38;1.58;;;13.80;99.90;;;;;;5094501;28;20130;-71
2022/11/08 11:48:27;;;;;;;4.60;1.50;;;13.80;99.90;;;;;;5112611;28;20077;-72
2022/11/08 11:50:54;;;;;;;3.80;1.00;;;13.80;99.90;;;;;;5077318;28;20035;-74
2022/11/08 11:53:37;;;;;;;6.43;1.70;;;13.90;99.90;;;;;;5094334;28;20039;-75
2022/11/08 11:56:34;;;;;;;5.72;1.27;;;13.90;99.90;;;;;;5077046;28;20083;-72
2022/11/08 11:59:26;;;;;;;3.90;1.20;;;13.90;99.90;;;;;;5094158;28;20488;-74
2022/11/08 12:02:23;;;;;;;2.70;1.15;;;14.00;99.90;;;;;;5112532;28;20120;-70
2022/11/08 12:05:13;;;;;;;4.35;1.40;;;14.10;99.90;;;;;;5086522;28;20043;-71
2022/11/08 12:07:59;;;;;;;;;;;14.20;99.90;;;;;;5054785;28;20075;-72
2022/11/08 12:10:37;;;;;;;1.35;0.95;;;14.30;99.90;;;;;;5068567;28;19920;-71
2022/11/08 12:13:12;;;;;;;6.75;1.45;;;14.30;99.90;;;;;;5081503;28;20040;-71
2022/11/08 12:15:56;;;;;;;2.50;1.30;;;14.30;99.90;;;;;;5091718;28;20059;-70
2022/11/08 12:18:45;;;;;;;4.68;1.33;;;14.40;99.90;;;;;;5112228;28;20040;-71
2022/11/08 12:21:38;;;;;;;2.53;1.20;;;14.60;99.90;;;;;;5081125;28;20118;-69
2022/11/08 12:24:28;;;;;;;4.07;2.03;;;14.70;99.90;;;;;;5094849;28;20071;-69
2022/11/08 12:27:08;;;;;;;3.33;1.10;;;14.80;99.90;;;;;;5107274;28;20480;-75
2022/11/08 12:29:46;;;;;;;5.38;1.60;;;14.90;99.90;;;;;;5115765;28;20191;-70
2022/11/08 12:32:21;;;;;;;3.15;1.30;;;15.00;99.90;;;;;;5080503;28;20036;-71
2022/11/08 12:34:59;;;;;;;3.75;1.75;;;15.00;99.90;;;;;;5115942;28;20063;-72
2022/11/08 12:37:43;;;;;;;5.93;1.30;;;14.90;99.90;;;;;;5110525;28;20044;-73
2022/11/08 12:40:36;;;;;;;2.45;1.33;;;14.90;99.90;;;;;;5097474;28;20039;-71
2022/11/08 12:43:37;;;;;;;8.68;1.50;;;14.90;99.90;;;;;;5113499;28;20044;-70
2022/11/08 12:46:09;;;;;;;4.82;1.25;;;14.90;99.90;;;;;;5029267;28;20062;-70
2022/11/08 12:48:47;;;;;;;4.32;1.42;;;14.90;99.90;;;;;;5097097;28;20124;-70
2022/11/08 12:51:18;;;;;;;4.07;1.35;;;15.00;99.90;;;;;;5115428;28;20043;-71
2022/11/08 12:54:03;;;;;;;4.53;1.05;;;15.10;99.90;;;;;;5097263;28;20044;-71
2022/11/08 12:56:39;;;;;;;3.90;1.30;;;15.10;99.90;;;;;;5096824;28;20082;-70
2022/11/08 12:59:14;;;;;;;3.38;1.17;;;15.10;99.90;;;;;;5096978;28;20043;-70
2022/11/08 13:01:40;;;;;;;3.90;1.52;;;15.20;99.90;;;;;;5076228;28;20044;-71
2022/11/08 13:04:17;;;;;;;3.58;1.30;;;15.10;99.90;;;;;;5092954;28;20054;-70
2022/11/08 13:06:46;;;;;;;2.30;1.10;;;15.00;99.90;;;;;;5115222;28;20128;-71
2022/11/08 13:09:18;;;;;;;4.82;1.20;;;14.90;99.90;;;;;;5114945;28;20032;-69
2022/11/08 13:12:18;;;;;;;3.50;1.65;;;14.90;99.90;;;;;;5096599;28;20477;-70
2022/11/08 13:14:44;;;;;;;5.82;1.60;;;14.90;99.90;;;;;;5096710;28;20513;-70
2022/11/08 13:17:25;;;;;;;3.95;1.92;;;14.80;99.90;;;;;;5097208;28;20036;-71
2022/11/08 13:19:55;;;;;;;4.10;1.35;;;14.80;99.90;;;;;;5115140;28;20075;-70
2022/11/08 13:22:30;;;;;;;3.30;1.52;;;14.80;99.90;;;;;;5115400;28;20043;-70